sensor_id;sensor_type;location;lat;lon;timestamp;pressure;altitude;pressure_sealevel;temperature;humidity
33185;BME280;19550;42.872;25.494;2024-01-16T00:00:22;94766.50;;;6.39;100.00
33185;BME280;19550;42.872;25.494;2024-01-16T00:02:49;94757.66;;;6.33;100.00
33185;BME280;19550;42.872;25.494;2024-01-16T00:05:17;94767.28;;;6.19;100.00
33185;BME280;19550;42.872;25.494;2024-01-16T00:07:44;94772.66;;;6.15;100.00
33185;BME280;19550;42.872;25.494;2024-01-16T00:10:11;94766.78;;;5.96;100.00
33185;BME280;19550;42.872;25.494;2024-01-16T00:12:38;94776.75;;;6.09;100.00
33185;BME280;19550;42.872;25.494;2024-01-16T00:15:06;94775.00;;;6.05;100.00
33185;BME280;19550;42.872;25.494;2024-01-16T00:17:33;94760.47;;;5.95;100.00
33185;BME280;19550;42.872;25.494;2024-01-16T00:20:00;94761.50;;;5.91;100.00
33185;BME280;19550;42.872;25.494;2024-01-16T00:22:28;94762.44;;;5.86;100.00
33185;BME280;19550;42.872;25.494;2024-01-16T00:24:55;94756.78;;;5.91;100.00
33185;BME280;19550;42.872;25.494;2024-01-16T00:27:22;94752.88;;;5.92;100.00
33185;BME280;19550;42.872;25.494;2024-01-16T00:29:48;94738.00;;;5.93;100.00
33185;BME280;19550;42.872;25.494;2024-01-16T00:32:16;94743.19;;;5.86;100.00
33185;BME280;19550;42.872;25.494;2024-01-16T00:34:43;94743.13;;;6.04;100.00
33185;BME280;19550;42.872;25.494;2024-01-16T00:37:09;94737.91;;;6.11;100.00
33185;BME280;19550;42.872;25.494;2024-01-16T00:39:37;94725.59;;;5.87;100.00
33185;BME280;19550;42.872;25.494;2024-01-16T00:42:04;94733.91;;;5.70;100.00
33185;BME280;19550;42.872;25.494;2024-01-16T00:44:32;94733.44;;;5.59;100.00
33185;BME280;19550;42.872;25.494;2024-01-16T00:47:00;94729.13;;;5.50;100.00
33185;BME280;19550;42.872;25.494;2024-01-16T00:49:27;94737.38;;;5.50;100.00
33185;BME280;19550;42.872;25.494;2024-01-16T00:51:54;94742.59;;;5.34;100.00
33185;BME280;19550;42.872;25.494;2024-01-16T00:54:21;94730.50;;;5.27;100.00
33185;BME280;19550;42.872;25.494;2024-01-16T00:56:49;94745.84;;;5.28;100.00
33185;BME280;19550;42.872;25.494;2024-01-16T00:59:20;94749.38;;;5.37;100.00
33185;BME280;19550;42.872;25.494;2024-01-16T01:01:47;94737.72;;;5.40;100.00
33185;BME280;19550;42.872;25.494;2024-01-16T01:04:13;94742.56;;;5.43;100.00
33185;BME280;19550;42.872;25.494;2024-01-16T01:06:40;94728.34;;;5.41;100.00
33185;BME280;19550;42.872;25.494;2024-01-16T01:09:07;94740.97;;;5.42;100.00
33185;BME280;19550;42.872;25.494;2024-01-16T01:11:37;94755.69;;;5.37;100.00
33185;BME280;19550;42.872;25.494;2024-01-16T01:14:05;94741.75;;;5.51;100.00
33185;BME280;19550;42.872;25.494;2024-01-16T01:16:32;94746.78;;;5.40;100.00
33185;BME280;19550;42.872;25.494;2024-01-16T01:18:59;94746.78;;;5.40;100.00
33185;BME280;19550;42.872;25.494;2024-01-16T01:21:25;94744.34;;;5.39;100.00
33185;BME280;19550;42.872;25.494;2024-01-16T01:23:52;94742.47;;;5.31;100.00
33185;BME280;19550;42.872;25.494;2024-01-16T01:26:19;94753.09;;;5.32;100.00
33185;BME280;19550;42.872;25.494;2024-01-16T01:28:46;94746.63;;;5.37;100.00
33185;BME280;19550;42.872;25.494;2024-01-16T01:31:14;94750.03;;;5.34;100.00
33185;BME280;19550;42.872;25.494;2024-01-16T01:33:41;94739.03;;;5.34;100.00
33185;BME280;19550;42.872;25.494;2024-01-16T01:36:08;94750.91;;;5.17;100.00
33185;BME280;19550;42.872;25.494;2024-01-16T01:38:35;94749.47;;;5.02;100.00
33185;BME280;19550;42.872;25.494;2024-01-16T01:41:02;94753.66;;;5.00;100.00
33185;BME280;19550;42.872;25.494;2024-01-16T01:43:29;94751.91;;;4.87;100.00
33185;BME280;19550;42.872;25.494;2024-01-16T01:46:15;94754.34;;;4.88;100.00
33185;BME280;19550;42.872;25.494;2024-01-16T01:48:44;94760.28;;;4.99;100.00
33185;BME280;19550;42.872;25.494;2024-01-16T01:51:12;94754.50;;;4.92;100.00
33185;BME280;19550;42.872;25.494;2024-01-16T01:53:41;94753.84;;;4.86;100.00
33185;BME280;19550;42.872;25.494;2024-01-16T01:56:11;94755.16;;;4.89;100.00
33185;BME280;19550;42.872;25.494;2024-01-16T01:58:40;94756.59;;;4.86;100.00
33185;BME280;19550;42.872;25.494;2024-01-16T02:01:09;94764.19;;;4.80;100.00
33185;BME280;19550;42.872;25.494;2024-01-16T02:03:42;94757.56;;;4.82;100.00
33185;BME280;19550;42.872;25.494;2024-01-16T02:06:10;94766.63;;;4.82;100.00
33185;BME280;19550;42.872;25.494;2024-01-16T02:08:37;94767.25;;;4.88;100.00
33185;BME280;19550;42.872;25.494;2024-01-16T02:11:04;94773.38;;;4.93;100.00
33185;BME280;19550;42.872;25.494;2024-01-16T02:13:31;94769.84;;;4.84;100.00
33185;BME280;19550;42.872;25.494;2024-01-16T02:15:58;94772.91;;;4.83;100.00
33185;BME280;19550;42.872;25.494;2024-01-16T02:18:25;94780.03;;;4.84;100.00
33185;BME280;19550;42.872;25.494;2024-01-16T02:20:55;94782.44;;;4.76;100.00
33185;BME280;19550;42.872;25.494;2024-01-16T02:23:26;94789.84;;;4.59;100.00
33185;BME280;19550;42.872;25.494;2024-01-16T02:25:53;94799.69;;;4.60;100.00
33185;BME280;19550;42.872;25.494;2024-01-16T02:28:20;94793.75;;;4.58;100.00
33185;BME280;19550;42.872;25.494;2024-01-16T02:30:46;94811.16;;;4.62;100.00
33185;BME280;19550;42.872;25.494;2024-01-16T02:33:13;94825.06;;;4.57;100.00
33185;BME280;19550;42.872;25.494;2024-01-16T02:35:40;94811.63;;;4.47;100.00
33185;BME280;19550;42.872;25.494;2024-01-16T02:38:07;94831.03;;;4.67;100.00
33185;BME280;19550;42.872;25.494;2024-01-16T02:40:35;94833.25;;;4.48;100.00
33185;BME280;19550;42.872;25.494;2024-01-16T02:43:02;94846.97;;;4.39;100.00
33185;BME280;19550;42.872;25.494;2024-01-16T02:45:28;94851.47;;;4.35;100.00
33185;BME280;19550;42.872;25.494;2024-01-16T02:47:55;94859.88;;;4.48;100.00
33185;BME280;19550;42.872;25.494;2024-01-16T02:50:22;94867.81;;;4.58;100.00
33185;BME280;19550;42.872;25.494;2024-01-16T02:52:49;94875.91;;;4.63;100.00
33185;BME280;19550;42.872;25.494;2024-01-16T02:55:16;94886.34;;;4.44;100.00
33185;BME280;19550;42.872;25.494;2024-01-16T02:57:44;94901.69;;;4.45;100.00
33185;BME280;19550;42.872;25.494;2024-01-16T03:00:11;94895.03;;;4.46;100.00
33185;BME280;19550;42.872;25.494;2024-01-16T03:02:39;94912.78;;;4.39;100.00
33185;BME280;19550;42.872;25.494;2024-01-16T03:05:06;94925.47;;;4.27;100.00
33185;BME280;19550;42.872;25.494;2024-01-16T03:07:33;94925.47;;;4.18;100.00
33185;BME280;19550;42.872;25.494;2024-01-16T03:10:00;94931.16;;;4.30;100.00
33185;BME280;19550;42.872;25.494;2024-01-16T03:12:27;94934.38;;;4.24;100.00
33185;BME280;19550;42.872;25.494;2024-01-16T03:14:55;94948.03;;;4.15;100.00
33185;BME280;19550;42.872;25.494;2024-01-16T03:17:22;94950.31;;;4.22;100.00
33185;BME280;19550;42.872;25.494;2024-01-16T03:19:49;94956.88;;;4.12;100.00
33185;BME280;19550;42.872;25.494;2024-01-16T03:22:15;94964.84;;;4.22;100.00
33185;BME280;19550;42.872;25.494;2024-01-16T03:24:42;94977.31;;;4.37;100.00
33185;BME280;19550;42.872;25.494;2024-01-16T03:27:09;94985.56;;;4.46;100.00
33185;BME280;19550;42.872;25.494;2024-01-16T03:29:36;95009.03;;;4.52;100.00
33185;BME280;19550;42.872;25.494;2024-01-16T03:32:05;95016.47;;;4.29;100.00
33185;BME280;19550;42.872;25.494;2024-01-16T03:34:31;95034.00;;;4.19;100.00
33185;BME280;19550;42.872;25.494;2024-01-16T03:36:58;95043.75;;;4.25;100.00
33185;BME280;19550;42.872;25.494;2024-01-16T03:39:25;95044.59;;;4.12;100.00
33185;BME280;19550;42.872;25.494;2024-01-16T03:41:52;95079.06;;;4.27;100.00
33185;BME280;19550;42.872;25.494;2024-01-16T03:44:18;95095.41;;;4.63;100.00
33185;BME280;19550;42.872;25.494;2024-01-16T03:46:45;95109.50;;;5.09;100.00
33185;BME280;19550;42.872;25.494;2024-01-16T03:49:13;95124.44;;;5.34;100.00
33185;BME280;19550;42.872;25.494;2024-01-16T03:51:40;95140.75;;;5.39;100.00
33185;BME280;19550;42.872;25.494;2024-01-16T03:54:11;95158.06;;;5.40;100.00
33185;BME280;19550;42.872;25.494;2024-01-16T03:56:38;95159.69;;;5.41;100.00
33185;BME280;19550;42.872;25.494;2024-01-16T03:59:05;95198.22;;;5.18;100.00
33185;BME280;19550;42.872;25.494;2024-01-16T04:01:32;95205.88;;;4.99;100.00
33185;BME280;19550;42.872;25.494;2024-01-16T04:03:59;95213.41;;;4.85;100.00
33185;BME280;19550;42.872;25.494;2024-01-16T04:06:27;95222.06;;;4.78;100.00
33185;BME280;19550;42.872;25.494;2024-01-16T04:08:55;95232.31;;;4.64;100.00
33185;BME280;19550;42.872;25.494;2024-01-16T04:11:22;95240.97;;;4.58;100.00
33185;BME280;19550;42.872;25.494;2024-01-16T04:13:48;95242.50;;;4.50;100.00
33185;BME280;19550;42.872;25.494;2024-01-16T04:16:16;95259.59;;;4.47;100.00
33185;BME280;19550;42.872;25.494;2024-01-16T04:18:43;95261.03;;;4.45;100.00
33185;BME280;19550;42.872;25.494;2024-01-16T04:21:10;95265.50;;;4.40;100.00
33185;BME280;19550;42.872;25.494;2024-01-16T04:23:38;95270.16;;;4.40;100.00
33185;BME280;19550;42.872;25.494;2024-01-16T04:26:05;95284.53;;;4.37;100.00
33185;BME280;19550;42.872;25.494;2024-01-16T04:28:33;95299.38;;;4.22;100.00
33185;BME280;19550;42.872;25.494;2024-01-16T04:31:00;95289.34;;;4.18;100.00
33185;BME280;19550;42.872;25.494;2024-01-16T04:33:27;95310.66;;;4.07;100.00
33185;BME280;19550;42.872;25.494;2024-01-16T04:35:55;95324.31;;;3.98;100.00
33185;BME280;19550;42.872;25.494;2024-01-16T04:38:21;95333.63;;;3.97;100.00
33185;BME280;19550;42.872;25.494;2024-01-16T04:40:50;95329.38;;;3.91;100.00
33185;BME280;19550;42.872;25.494;2024-01-16T04:43:17;95332.00;;;3.83;100.00
33185;BME280;19550;42.872;25.494;2024-01-16T04:45:43;95331.72;;;3.84;100.00
33185;BME280;19550;42.872;25.494;2024-01-16T04:48:11;95342.25;;;3.77;100.00
33185;BME280;19550;42.872;25.494;2024-01-16T04:50:38;95332.50;;;3.71;100.00
33185;BME280;19550;42.872;25.494;2024-01-16T04:53:05;95346.22;;;3.71;100.00
33185;BME280;19550;42.872;25.494;2024-01-16T04:55:31;95340.09;;;3.74;100.00
33185;BME280;19550;42.872;25.494;2024-01-16T04:57:59;95347.84;;;3.72;100.00
33185;BME280;19550;42.872;25.494;2024-01-16T05:00:26;95352.19;;;3.73;100.00
33185;BME280;19550;42.872;25.494;2024-01-16T05:02:53;95357.56;;;3.65;100.00
33185;BME280;19550;42.872;25.494;2024-01-16T05:05:20;95364.06;;;3.69;100.00
33185;BME280;19550;42.872;25.494;2024-01-16T05:07:47;95357.56;;;3.65;100.00
33185;BME280;19550;42.872;25.494;2024-01-16T05:10:13;95367.00;;;3.58;100.00
33185;BME280;19550;42.872;25.494;2024-01-16T05:12:41;95353.09;;;3.55;100.00
33185;BME280;19550;42.872;25.494;2024-01-16T05:15:09;95365.56;;;3.61;100.00
33185;BME280;19550;42.872;25.494;2024-01-16T05:17:37;95379.56;;;3.59;100.00
33185;BME280;19550;42.872;25.494;2024-01-16T05:20:05;95376.81;;;3.59;100.00
33185;BME280;19550;42.872;25.494;2024-01-16T05:22:32;95367.47;;;3.47;100.00
33185;BME280;19550;42.872;25.494;2024-01-16T05:25:00;95381.16;;;3.47;100.00
33185;BME280;19550;42.872;25.494;2024-01-16T05:27:28;95377.13;;;3.44;100.00
33185;BME280;19550;42.872;25.494;2024-01-16T05:29:55;95383.00;;;3.51;100.00
33185;BME280;19550;42.872;25.494;2024-01-16T05:32:23;95393.22;;;3.46;100.00
33185;BME280;19550;42.872;25.494;2024-01-16T05:34:51;95387.34;;;3.52;100.00
33185;BME280;19550;42.872;25.494;2024-01-16T05:37:19;95405.50;;;3.48;100.00
33185;BME280;19550;42.872;25.494;2024-01-16T05:39:45;95414.56;;;3.49;100.00
33185;BME280;19550;42.872;25.494;2024-01-16T05:42:12;95422.19;;;3.52;100.00
33185;BME280;19550;42.872;25.494;2024-01-16T05:44:39;95428.97;;;3.54;100.00
33185;BME280;19550;42.872;25.494;2024-01-16T05:47:06;95437.19;;;3.54;100.00
33185;BME280;19550;42.872;25.494;2024-01-16T05:49:34;95441.94;;;3.49;100.00
33185;BME280;19550;42.872;25.494;2024-01-16T05:52:01;95447.94;;;3.51;100.00
33185;BME280;19550;42.872;25.494;2024-01-16T05:54:28;95453.72;;;3.49;100.00
33185;BME280;19550;42.872;25.494;2024-01-16T05:56:55;95469.13;;;3.45;100.00
33185;BME280;19550;42.872;25.494;2024-01-16T05:59:22;95450.63;;;3.37;100.00
33185;BME280;19550;42.872;25.494;2024-01-16T06:01:49;95477.50;;;3.35;100.00
33185;BME280;19550;42.872;25.494;2024-01-16T06:04:15;95488.16;;;3.37;100.00
33185;BME280;19550;42.872;25.494;2024-01-16T06:06:44;95465.00;;;3.29;100.00
33185;BME280;19550;42.872;25.494;2024-01-16T06:09:13;95472.19;;;3.25;100.00
33185;BME280;19550;42.872;25.494;2024-01-16T06:11:41;95469.94;;;3.27;100.00
33185;BME280;19550;42.872;25.494;2024-01-16T06:14:08;95449.59;;;3.14;100.00
33185;BME280;19550;42.872;25.494;2024-01-16T06:16:37;95486.44;;;3.22;100.00
33185;BME280;19550;42.872;25.494;2024-01-16T06:19:04;95491.56;;;3.10;100.00
33185;BME280;19550;42.872;25.494;2024-01-16T06:21:31;95503.09;;;3.07;100.00
33185;BME280;19550;42.872;25.494;2024-01-16T06:23:59;95455.09;;;2.77;100.00
33185;BME280;19550;42.872;25.494;2024-01-16T06:26:26;95506.94;;;3.06;100.00
33185;BME280;19550;42.872;25.494;2024-01-16T06:28:52;95519.28;;;2.85;100.00
33185;BME280;19550;42.872;25.494;2024-01-16T06:31:19;95544.66;;;2.90;100.00
33185;BME280;19550;42.872;25.494;2024-01-16T06:33:46;95529.06;;;2.91;100.00
33185;BME280;19550;42.872;25.494;2024-01-16T06:36:13;95536.22;;;2.87;100.00
33185;BME280;19550;42.872;25.494;2024-01-16T06:38:40;95543.38;;;2.83;100.00
33185;BME280;19550;42.872;25.494;2024-01-16T06:41:08;95553.97;;;2.89;100.00
33185;BME280;19550;42.872;25.494;2024-01-16T06:43:35;95560.47;;;2.93;100.00
33185;BME280;19550;42.872;25.494;2024-01-16T06:46:02;95544.06;;;2.93;100.00
33185;BME280;19550;42.872;25.494;2024-01-16T06:48:29;95575.38;;;3.06;100.00
33185;BME280;19550;42.872;25.494;2024-01-16T06:50:55;95588.44;;;2.90;100.00
33185;BME280;19550;42.872;25.494;2024-01-16T06:53:22;95593.09;;;2.90;100.00
33185;BME280;19550;42.872;25.494;2024-01-16T06:55:49;95608.91;;;2.93;100.00
33185;BME280;19550;42.872;25.494;2024-01-16T06:58:17;95623.97;;;2.95;100.00
33185;BME280;19550;42.872;25.494;2024-01-16T07:00:44;95630.25;;;2.96;100.00
33185;BME280;19550;42.872;25.494;2024-01-16T07:03:12;95618.78;;;2.94;100.00
33185;BME280;19550;42.872;25.494;2024-01-16T07:05:39;95636.47;;;3.01;100.00
33185;BME280;19550;42.872;25.494;2024-01-16T07:08:06;95622.78;;;3.01;100.00
33185;BME280;19550;42.872;25.494;2024-01-16T07:10:33;95636.59;;;3.15;100.00
33185;BME280;19550;42.872;25.494;2024-01-16T07:13:01;95643.44;;;3.36;100.00
33185;BME280;19550;42.872;25.494;2024-01-16T07:15:32;95639.31;;;3.57;100.00
33185;BME280;19550;42.872;25.494;2024-01-16T07:17:58;95642.00;;;3.63;100.00
33185;BME280;19550;42.872;25.494;2024-01-16T07:20:25;95639.09;;;3.73;100.00
33185;BME280;19550;42.872;25.494;2024-01-16T07:22:52;95640.59;;;3.84;100.00
33185;BME280;19550;42.872;25.494;2024-01-16T07:25:19;95651.97;;;4.10;98.55
33185;BME280;19550;42.872;25.494;2024-01-16T07:27:46;95674.81;;;4.05;98.02
33185;BME280;19550;42.872;25.494;2024-01-16T07:30:15;95646.06;;;4.03;96.77
33185;BME280;19550;42.872;25.494;2024-01-16T07:32:43;95670.78;;;4.35;95.72
33185;BME280;19550;42.872;25.494;2024-01-16T07:35:10;95692.94;;;4.20;94.81
33185;BME280;19550;42.872;25.494;2024-01-16T07:37:37;95697.25;;;4.07;93.51
33185;BME280;19550;42.872;25.494;2024-01-16T07:40:04;95677.50;;;3.91;94.86
33185;BME280;19550;42.872;25.494;2024-01-16T07:42:32;95700.16;;;3.97;93.32
33185;BME280;19550;42.872;25.494;2024-01-16T07:45:00;95711.56;;;3.85;94.66
33185;BME280;19550;42.872;25.494;2024-01-16T07:47:29;95724.47;;;3.85;93.39
33185;BME280;19550;42.872;25.494;2024-01-16T07:49:57;95719.06;;;3.98;94.05
33185;BME280;19550;42.872;25.494;2024-01-16T07:52:25;95718.97;;;4.04;94.22
33185;BME280;19550;42.872;25.494;2024-01-16T07:54:51;95724.84;;;4.16;93.07
33185;BME280;19550;42.872;25.494;2024-01-16T07:57:18;95726.25;;;4.32;90.63
33185;BME280;19550;42.872;25.494;2024-01-16T07:59:46;95727.88;;;4.65;89.71
33185;BME280;19550;42.872;25.494;2024-01-16T08:02:13;95756.31;;;4.56;87.64
33185;BME280;19550;42.872;25.494;2024-01-16T08:04:39;95746.00;;;4.48;89.69
33185;BME280;19550;42.872;25.494;2024-01-16T08:07:07;95752.53;;;4.33;87.78
33185;BME280;19550;42.872;25.494;2024-01-16T08:09:34;95758.94;;;4.28;87.60
33185;BME280;19550;42.872;25.494;2024-01-16T08:12:01;95737.56;;;4.07;87.91
33185;BME280;19550;42.872;25.494;2024-01-16T08:14:29;95747.13;;;4.09;87.67
33185;BME280;19550;42.872;25.494;2024-01-16T08:16:56;95754.63;;;4.04;88.22
33185;BME280;19550;42.872;25.494;2024-01-16T08:19:22;95778.59;;;3.93;88.42
33185;BME280;19550;42.872;25.494;2024-01-16T08:21:49;95773.13;;;3.93;88.55
33185;BME280;19550;42.872;25.494;2024-01-16T08:24:18;95779.41;;;3.93;88.52
33185;BME280;19550;42.872;25.494;2024-01-16T08:26:45;95767.19;;;3.86;88.04
33185;BME280;19550;42.872;25.494;2024-01-16T08:29:11;95785.78;;;3.89;87.03
33185;BME280;19550;42.872;25.494;2024-01-16T08:31:38;95781.59;;;3.96;88.43
33185;BME280;19550;42.872;25.494;2024-01-16T08:34:05;95793.47;;;3.87;87.10
33185;BME280;19550;42.872;25.494;2024-01-16T08:36:32;95812.78;;;4.00;86.26
33185;BME280;19550;42.872;25.494;2024-01-16T08:38:59;95811.75;;;3.96;85.16
33185;BME280;19550;42.872;25.494;2024-01-16T08:41:27;95801.66;;;3.92;84.51
33185;BME280;19550;42.872;25.494;2024-01-16T08:43:54;95812.50;;;4.02;85.01
33185;BME280;19550;42.872;25.494;2024-01-16T08:46:21;95828.06;;;4.07;84.45
33185;BME280;19550;42.872;25.494;2024-01-16T08:48:48;95840.59;;;4.13;84.58
33185;BME280;19550;42.872;25.494;2024-01-16T08:51:15;95841.47;;;4.08;84.23
33185;BME280;19550;42.872;25.494;2024-01-16T08:53:42;95856.22;;;4.12;83.18
33185;BME280;19550;42.872;25.494;2024-01-16T08:56:08;95860.25;;;4.20;84.22
33185;BME280;19550;42.872;25.494;2024-01-16T08:58:39;95875.84;;;4.24;84.43
33185;BME280;19550;42.872;25.494;2024-01-16T09:01:05;95905.47;;;4.22;81.90
33185;BME280;19550;42.872;25.494;2024-01-16T09:03:33;95880.88;;;4.17;82.36
33185;BME280;19550;42.872;25.494;2024-01-16T09:06:00;95901.97;;;4.17;83.29
33185;BME280;19550;42.872;25.494;2024-01-16T09:08:27;95905.75;;;4.21;82.70
33185;BME280;19550;42.872;25.494;2024-01-16T09:10:54;95883.03;;;4.39;82.90
33185;BME280;19550;42.872;25.494;2024-01-16T09:13:21;95902.88;;;4.55;82.59
33185;BME280;19550;42.872;25.494;2024-01-16T09:15:50;95905.88;;;4.77;80.40
33185;BME280;19550;42.872;25.494;2024-01-16T09:18:17;95885.63;;;4.92;81.00
33185;BME280;19550;42.872;25.494;2024-01-16T09:20:44;95890.63;;;5.22;77.37
33185;BME280;19550;42.872;25.494;2024-01-16T09:23:10;95907.50;;;5.48;77.22
33185;BME280;19550;42.872;25.494;2024-01-16T09:25:38;95911.75;;;5.73;76.43
33185;BME280;19550;42.872;25.494;2024-01-16T09:28:04;95888.81;;;5.96;75.65
33185;BME280;19550;42.872;25.494;2024-01-16T09:30:33;95915.22;;;5.97;73.39
33185;BME280;19550;42.872;25.494;2024-01-16T09:33:02;95916.44;;;6.32;71.65
33185;BME280;19550;42.872;25.494;2024-01-16T09:35:32;95937.47;;;6.42;70.94
33185;BME280;19550;42.872;25.494;2024-01-16T09:38:00;95926.44;;;6.28;71.07
33185;BME280;19550;42.872;25.494;2024-01-16T09:40:27;95912.25;;;5.93;70.10
33185;BME280;19550;42.872;25.494;2024-01-16T09:42:53;95928.38;;;5.81;70.64
33185;BME280;19550;42.872;25.494;2024-01-16T09:45:21;95925.00;;;6.03;70.71
33185;BME280;19550;42.872;25.494;2024-01-16T09:47:50;95920.63;;;6.16;68.99
33185;BME280;19550;42.872;25.494;2024-01-16T09:50:19;95920.00;;;6.32;69.45
33185;BME280;19550;42.872;25.494;2024-01-16T09:52:46;95899.53;;;6.11;69.67
33185;BME280;19550;42.872;25.494;2024-01-16T09:55:13;95921.16;;;6.18;71.31
33185;BME280;19550;42.872;25.494;2024-01-16T09:57:41;95916.84;;;6.12;72.54
33185;BME280;19550;42.872;25.494;2024-01-16T10:00:09;95927.22;;;5.69;69.18
33185;BME280;19550;42.872;25.494;2024-01-16T10:02:38;95938.66;;;5.76;70.35
33185;BME280;19550;42.872;25.494;2024-01-16T10:05:07;95926.25;;;6.11;68.80
33185;BME280;19550;42.872;25.494;2024-01-16T10:07:37;95934.13;;;5.98;68.12
33185;BME280;19550;42.872;25.494;2024-01-16T10:10:05;95927.91;;;5.93;69.02
33185;BME280;19550;42.872;25.494;2024-01-16T10:12:33;95922.13;;;5.94;67.16
33185;BME280;19550;42.872;25.494;2024-01-16T10:15:00;95921.66;;;6.33;64.66
33185;BME280;19550;42.872;25.494;2024-01-16T10:17:37;95920.63;;;6.70;66.74
33185;BME280;19550;42.872;25.494;2024-01-16T10:20:05;95932.13;;;6.86;64.46
33185;BME280;19550;42.872;25.494;2024-01-16T10:22:33;95940.19;;;6.83;63.12
33185;BME280;19550;42.872;25.494;2024-01-16T10:25:05;95936.91;;;6.94;63.27
33185;BME280;19550;42.872;25.494;2024-01-16T10:27:34;95930.69;;;7.25;62.74
33185;BME280;19550;42.872;25.494;2024-01-16T10:30:01;95932.66;;;6.61;62.88
33185;BME280;19550;42.872;25.494;2024-01-16T10:32:30;95938.47;;;6.59;63.63
33185;BME280;19550;42.872;25.494;2024-01-16T10:35:02;95905.94;;;6.48;65.29
33185;BME280;19550;42.872;25.494;2024-01-16T10:37:30;95922.22;;;6.71;66.44
33185;BME280;19550;42.872;25.494;2024-01-16T10:39:57;95926.56;;;6.36;64.03
33185;BME280;19550;42.872;25.494;2024-01-16T10:42:25;95912.59;;;5.87;63.99
33185;BME280;19550;42.872;25.494;2024-01-16T10:44:55;95925.50;;;5.73;65.87
33185;BME280;19550;42.872;25.494;2024-01-16T10:47:22;95922.44;;;5.74;65.33
33185;BME280;19550;42.872;25.494;2024-01-16T10:49:49;95923.47;;;5.65;65.62
33185;BME280;19550;42.872;25.494;2024-01-16T10:52:17;95917.44;;;5.63;65.68
33185;BME280;19550;42.872;25.494;2024-01-16T10:54:46;95898.00;;;5.73;67.43
33185;BME280;19550;42.872;25.494;2024-01-16T10:57:16;95927.78;;;5.52;63.54
33185;BME280;19550;42.872;25.494;2024-01-16T10:59:50;95933.44;;;5.42;64.65
33185;BME280;19550;42.872;25.494;2024-01-16T11:02:23;95947.16;;;5.60;64.08
33185;BME280;19550;42.872;25.494;2024-01-16T11:04:52;95940.25;;;5.63;62.16
33185;BME280;19550;42.872;25.494;2024-01-16T11:07:21;95934.91;;;5.85;62.61
33185;BME280;19550;42.872;25.494;2024-01-16T11:09:50;95936.50;;;6.05;61.37
33185;BME280;19550;42.872;25.494;2024-01-16T11:12:17;95921.97;;;5.53;61.62
33185;BME280;19550;42.872;25.494;2024-01-16T11:14:51;95930.28;;;5.67;64.16
33185;BME280;19550;42.872;25.494;2024-01-16T11:17:19;95937.72;;;5.67;63.14
33185;BME280;19550;42.872;25.494;2024-01-16T11:19:47;95958.53;;;5.54;62.87
33185;BME280;19550;42.872;25.494;2024-01-16T11:22:15;95967.09;;;5.34;62.39
33185;BME280;19550;42.872;25.494;2024-01-16T11:24:42;95950.41;;;5.30;63.35
33185;BME280;19550;42.872;25.494;2024-01-16T11:27:21;95960.63;;;5.43;65.81
33185;BME280;19550;42.872;25.494;2024-01-16T11:29:51;95968.16;;;5.38;62.93
33185;BME280;19550;42.872;25.494;2024-01-16T11:32:33;95968.66;;;5.40;63.20
33185;BME280;19550;42.872;25.494;2024-01-16T11:35:00;95975.47;;;5.61;62.97
33185;BME280;19550;42.872;25.494;2024-01-16T11:37:28;95967.88;;;5.53;61.21
33185;BME280;19550;42.872;25.494;2024-01-16T11:40:21;95979.31;;;5.60;62.10
33185;BME280;19550;42.872;25.494;2024-01-16T11:42:48;95986.03;;;5.35;58.75
33185;BME280;19550;42.872;25.494;2024-01-16T11:45:50;95994.28;;;5.35;61.12
33185;BME280;19550;42.872;25.494;2024-01-16T11:48:17;95994.06;;;5.32;61.21
33185;BME280;19550;42.872;25.494;2024-01-16T11:50:45;96008.69;;;5.46;61.69
33185;BME280;19550;42.872;25.494;2024-01-16T11:53:33;96007.28;;;5.30;59.86
33185;BME280;19550;42.872;25.494;2024-01-16T11:56:39;96013.06;;;5.47;60.09
33185;BME280;19550;42.872;25.494;2024-01-16T11:59:37;96006.38;;;5.53;59.66
33185;BME280;19550;42.872;25.494;2024-01-16T12:02:12;95991.00;;;5.71;59.82
33185;BME280;19550;42.872;25.494;2024-01-16T12:04:41;96011.44;;;5.65;60.61
33185;BME280;19550;42.872;25.494;2024-01-16T12:07:08;96013.56;;;5.68;59.66
33185;BME280;19550;42.872;25.494;2024-01-16T12:09:36;96010.25;;;5.71;58.62
33185;BME280;19550;42.872;25.494;2024-01-16T12:12:03;96009.66;;;5.55;58.78
33185;BME280;19550;42.872;25.494;2024-01-16T12:14:30;96026.81;;;5.47;58.37
33185;BME280;19550;42.872;25.494;2024-01-16T12:17:08;96023.22;;;5.65;60.66
33185;BME280;19550;42.872;25.494;2024-01-16T12:19:37;96025.25;;;5.78;58.51
33185;BME280;19550;42.872;25.494;2024-01-16T12:22:08;96039.06;;;5.73;59.68
33185;BME280;19550;42.872;25.494;2024-01-16T12:24:36;96009.34;;;5.56;58.30
33185;BME280;19550;42.872;25.494;2024-01-16T12:27:03;96055.94;;;5.67;57.27
33185;BME280;19550;42.872;25.494;2024-01-16T12:29:30;96046.50;;;5.54;57.45
33185;BME280;19550;42.872;25.494;2024-01-16T12:32:05;96055.19;;;5.42;56.86
33185;BME280;19550;42.872;25.494;2024-01-16T12:34:32;96069.28;;;5.36;56.63
33185;BME280;19550;42.872;25.494;2024-01-16T12:37:06;96055.72;;;5.44;57.86
33185;BME280;19550;42.872;25.494;2024-01-16T12:39:33;96049.94;;;5.65;59.25
33185;BME280;19550;42.872;25.494;2024-01-16T12:42:01;96051.59;;;5.79;60.54
33185;BME280;19550;42.872;25.494;2024-01-16T12:44:29;96056.69;;;5.91;60.53
33185;BME280;19550;42.872;25.494;2024-01-16T12:46:56;96062.69;;;5.74;59.99
33185;BME280;19550;42.872;25.494;2024-01-16T12:49:23;96059.94;;;5.55;60.10
33185;BME280;19550;42.872;25.494;2024-01-16T12:51:50;96078.13;;;5.33;61.51
33185;BME280;19550;42.872;25.494;2024-01-16T12:54:21;96062.56;;;5.04;60.65
33185;BME280;19550;42.872;25.494;2024-01-16T12:56:58;96084.28;;;5.01;62.00
33185;BME280;19550;42.872;25.494;2024-01-16T12:59:27;96085.88;;;5.07;62.40